createdAt,value
2023-11-23T00:02:02.296Z,34.60
2023-11-23T00:04:29.050Z,34.00
2023-11-23T00:06:55.750Z,35.70
2023-11-23T00:09:22.475Z,35.50
2023-11-23T00:11:49.281Z,34.30
2023-11-23T00:14:16.009Z,38.10
2023-11-23T00:16:44.821Z,35.10
2023-11-23T00:19:11.679Z,36.00
2023-11-23T00:21:38.464Z,39.90
2023-11-23T00:24:06.250Z,34.00
2023-11-23T00:26:34.953Z,39.30
2023-11-23T00:29:01.946Z,36.90
2023-11-23T00:31:28.655Z,36.70
2023-11-23T00:33:55.848Z,35.20
2023-11-23T00:36:22.855Z,34.40
2023-11-23T00:38:49.822Z,36.80
2023-11-23T00:41:16.725Z,39.40
2023-11-23T00:43:43.374Z,34.80
2023-11-23T00:46:11.962Z,38.70
2023-11-23T00:48:38.935Z,36.70
2023-11-23T00:51:06.085Z,37.00
2023-11-23T00:53:33.468Z,38.10
2023-11-23T00:56:00.929Z,38.40
2023-11-23T00:58:27.851Z,32.70
2023-11-23T01:00:54.630Z,33.00
2023-11-23T01:03:21.472Z,34.00
2023-11-23T01:05:48.456Z,36.10
2023-11-23T01:08:16.372Z,36.40
2023-11-23T01:10:43.896Z,36.40
2023-11-23T01:13:10.573Z,37.00
2023-11-23T01:15:37.286Z,40.60
2023-11-23T01:18:04.754Z,36.30
2023-11-23T01:20:31.567Z,37.70
2023-11-23T01:22:58.454Z,40.10
2023-11-23T01:25:25.250Z,34.70
2023-11-23T01:27:51.952Z,33.70
2023-11-23T01:30:19.083Z,38.50
2023-11-23T01:32:46.085Z,31.10
2023-11-23T01:35:13.882Z,33.70
2023-11-23T01:37:40.662Z,30.20
2023-11-23T01:40:09.984Z,32.20
2023-11-23T01:42:36.864Z,32.30
2023-11-23T01:45:03.786Z,34.20
2023-11-23T01:47:32.657Z,33.50
2023-11-23T01:50:04.420Z,34.20
2023-11-23T01:52:31.655Z,32.00
2023-11-23T01:54:58.727Z,34.70
2023-11-23T01:57:26.440Z,33.00
2023-11-23T01:59:53.703Z,32.90
2023-11-23T02:02:20.512Z,35.00
2023-11-23T02:04:47.756Z,31.00
2023-11-23T02:07:14.551Z,28.20
2023-11-23T02:09:42.032Z,27.10
2023-11-23T02:12:10.787Z,30.00
2023-11-23T02:14:39.125Z,32.40
2023-11-23T02:17:19.135Z,32.50
2023-11-23T02:19:47.812Z,34.90
2023-11-23T02:22:14.591Z,36.10
2023-11-23T02:24:41.583Z,32.80
2023-11-23T02:27:09.955Z,34.20
2023-11-23T02:29:37.006Z,34.70
2023-11-23T02:32:08.388Z,32.70
2023-11-23T02:34:35.311Z,33.80
2023-11-23T02:37:02.124Z,31.50
2023-11-23T02:39:29.177Z,34.30
2023-11-23T02:41:56.691Z,35.30
2023-11-23T02:44:23.676Z,35.70
2023-11-23T02:46:51.228Z,36.50
2023-11-23T02:49:19.550Z,37.30
2023-11-23T02:51:46.869Z,37.00
2023-11-23T02:54:13.879Z,41.30
2023-11-23T02:56:41.137Z,37.10
2023-11-23T02:59:09.126Z,35.10
2023-11-23T03:01:36.329Z,34.20
2023-11-23T03:04:05.872Z,36.80
2023-11-23T03:06:32.830Z,33.50
2023-11-23T03:09:00.020Z,37.10
2023-11-23T03:11:27.723Z,36.50
2023-11-23T03:13:55.155Z,35.20
2023-11-23T03:16:21.906Z,39.50
2023-11-23T03:18:49.200Z,38.30
2023-11-23T03:21:16.269Z,39.40
2023-11-23T03:23:46.732Z,35.80
2023-11-23T03:26:14.114Z,33.00
2023-11-23T03:28:40.834Z,33.50
2023-11-23T03:31:09.121Z,34.20
2023-11-23T03:33:35.886Z,34.90
2023-11-23T03:36:02.950Z,38.10
2023-11-23T03:38:29.713Z,38.20
2023-11-23T03:40:59.122Z,39.60
2023-11-23T03:43:26.245Z,36.00
2023-11-23T03:45:53.021Z,35.40
2023-11-23T03:48:20.095Z,36.50
2023-11-23T03:50:47.654Z,34.70
2023-11-23T03:53:14.557Z,31.90
2023-11-23T03:55:41.285Z,36.30
2023-11-23T03:58:07.967Z,36.20
2023-11-23T04:00:36.009Z,38.20
2023-11-23T04:03:02.975Z,35.50
2023-11-23T04:05:29.911Z,40.40
2023-11-23T04:07:56.920Z,39.30
2023-11-23T04:10:23.602Z,40.80
2023-11-23T04:12:52.178Z,36.80
2023-11-23T04:15:19.223Z,35.10
2023-11-23T04:17:46.553Z,38.10
2023-11-23T04:20:14.311Z,34.10
2023-11-23T04:22:41.139Z,34.70
2023-11-23T04:25:09.757Z,32.40
2023-11-23T04:27:36.738Z,32.00
2023-11-23T04:30:05.468Z,35.50
2023-11-23T04:32:33.200Z,36.30
2023-11-23T04:34:59.919Z,36.20
2023-11-23T04:37:26.659Z,33.90
2023-11-23T04:39:53.634Z,36.20
2023-11-23T04:42:20.747Z,37.30
2023-11-23T04:44:47.600Z,35.90
2023-11-23T04:47:14.674Z,33.80
2023-11-23T04:49:41.436Z,35.20
2023-11-23T04:52:09.361Z,34.70
2023-11-23T04:54:36.484Z,34.60
2023-11-23T04:57:03.649Z,31.30
2023-11-23T04:59:30.770Z,31.00
2023-11-23T05:01:57.761Z,32.70
2023-11-23T05:04:25.347Z,35.20
2023-11-23T05:06:52.681Z,35.80
2023-11-23T05:09:19.684Z,37.10
2023-11-23T05:11:47.386Z,34.10
2023-11-23T05:14:14.101Z,29.30
2023-11-23T05:16:40.996Z,27.70
2023-11-23T05:19:07.856Z,30.60
2023-11-23T05:21:34.913Z,36.30
2023-11-23T05:24:03.844Z,33.70
2023-11-23T05:26:31.522Z,32.70
2023-11-23T05:28:58.302Z,36.00
2023-11-23T05:31:25.046Z,35.50
2023-11-23T05:33:51.905Z,38.00
2023-11-23T05:36:18.820Z,31.00
2023-11-23T05:38:45.612Z,32.30
2023-11-23T05:41:12.564Z,31.30
2023-11-23T05:43:39.291Z,28.00
2023-11-23T05:46:06.370Z,36.40
2023-11-23T05:48:33.088Z,32.00
2023-11-23T05:51:00.030Z,32.80
2023-11-23T05:53:26.792Z,33.30
2023-11-23T05:55:53.462Z,34.20
2023-11-23T05:58:20.261Z,32.30
2023-11-23T06:00:50.255Z,30.00
2023-11-23T06:03:21.131Z,29.70
2023-11-23T06:05:50.626Z,27.80
2023-11-23T06:08:17.316Z,31.90
2023-11-23T06:10:44.478Z,29.20
2023-11-23T06:13:11.234Z,30.60
2023-11-23T06:15:38.047Z,33.70
2023-11-23T06:18:13.306Z,32.90
2023-11-23T06:23:06.536Z,28.90
2023-11-23T06:25:33.580Z,29.50
2023-11-23T06:28:12.372Z,25.70
2023-11-23T06:30:42.483Z,31.50
2023-11-23T06:33:09.587Z,29.00
2023-11-23T06:35:36.474Z,31.50
2023-11-23T06:38:04.234Z,30.70
2023-11-23T06:40:31.091Z,31.40
2023-11-23T06:42:58.009Z,27.90
2023-11-23T06:45:25.080Z,26.10
2023-11-23T06:47:52.137Z,27.10
2023-11-23T06:50:19.409Z,27.80
2023-11-23T06:52:46.371Z,32.00
2023-11-23T06:55:15.326Z,31.20
2023-11-23T06:57:47.947Z,27.90
2023-11-23T07:00:23.400Z,25.80
2023-11-23T07:02:50.980Z,28.50
2023-11-23T07:05:18.123Z,24.40
2023-11-23T07:07:45.265Z,29.90
2023-11-23T07:10:15.384Z,28.20
2023-11-23T07:12:44.168Z,27.30
2023-11-23T07:15:13.474Z,31.30
2023-11-23T07:17:41.220Z,27.20
2023-11-23T07:20:13.811Z,26.20
2023-11-23T07:22:40.876Z,25.20
2023-11-23T07:25:11.066Z,26.10
2023-11-23T07:27:38.901Z,26.70
2023-11-23T07:30:07.856Z,23.80
2023-11-23T07:32:34.900Z,25.40
2023-11-23T07:35:01.772Z,22.50
2023-11-23T07:37:30.075Z,24.10
2023-11-23T07:39:58.232Z,22.60
2023-11-23T07:42:26.803Z,26.20
2023-11-23T07:44:53.996Z,22.90
2023-11-23T07:47:21.208Z,23.00
2023-11-23T07:49:47.996Z,22.30
2023-11-23T07:52:15.296Z,24.10
2023-11-23T07:54:42.093Z,22.80
2023-11-23T07:57:09.042Z,23.60
2023-11-23T07:59:37.898Z,23.30
2023-11-23T08:02:06.191Z,22.30
2023-11-23T08:04:33.230Z,22.90
2023-11-23T08:07:00.505Z,21.10
2023-11-23T08:09:31.367Z,19.70
2023-11-23T08:11:58.666Z,17.70
2023-11-23T08:14:25.589Z,17.40
2023-11-23T08:16:52.646Z,19.00
2023-11-23T08:19:19.851Z,20.40
2023-11-23T08:21:49.977Z,22.70
2023-11-23T08:24:18.591Z,17.80
2023-11-23T08:26:45.856Z,18.10
2023-11-23T08:29:13.192Z,17.50
2023-11-23T08:31:41.123Z,19.40
2023-11-23T08:34:09.260Z,17.90
2023-11-23T08:36:37.253Z,17.40
2023-11-23T08:39:04.519Z,15.10
2023-11-23T08:41:32.654Z,16.80
2023-11-23T08:44:00.037Z,14.60
2023-11-23T08:46:27.044Z,16.70
2023-11-23T08:48:55.667Z,13.80
2023-11-23T08:51:23.799Z,14.70
2023-11-23T08:53:51.464Z,13.60
2023-11-23T08:56:18.627Z,15.10
2023-11-23T08:58:45.432Z,14.20
2023-11-23T09:01:12.317Z,14.50
2023-11-23T09:03:39.444Z,12.80
2023-11-23T09:06:09.790Z,14.70
2023-11-23T09:08:37.654Z,16.00
2023-11-23T09:11:04.419Z,15.50
2023-11-23T09:13:33.189Z,12.80
2023-11-23T09:16:01.215Z,15.50
2023-11-23T09:18:28.191Z,13.70
2023-11-23T09:20:58.349Z,18.80
2023-11-23T09:23:26.163Z,17.90
2023-11-23T09:25:52.890Z,16.70
2023-11-23T09:28:20.433Z,18.90
2023-11-23T09:30:47.758Z,18.10
2023-11-23T09:33:16.412Z,16.90
2023-11-23T09:35:43.743Z,16.60
2023-11-23T09:38:11.407Z,19.20
2023-11-23T09:40:38.419Z,16.50
2023-11-23T09:43:05.989Z,16.10
2023-11-23T09:45:33.490Z,19.50
2023-11-23T09:48:01.975Z,15.50
2023-11-23T09:50:34.021Z,18.10
2023-11-23T09:53:05.455Z,16.30
2023-11-23T09:55:32.799Z,16.90
2023-11-23T09:58:00.352Z,21.20
2023-11-23T10:00:27.163Z,18.80
2023-11-23T10:02:57.203Z,17.30
2023-11-23T10:05:25.426Z,19.40
2023-11-23T10:07:54.962Z,18.30
2023-11-23T10:10:22.298Z,17.40
2023-11-23T10:12:50.857Z,20.30
2023-11-23T10:15:17.983Z,18.10
2023-11-23T10:17:44.911Z,19.40
2023-11-23T10:20:16.682Z,16.70
2023-11-23T10:22:47.042Z,20.20
2023-11-23T10:25:23.166Z,20.30
2023-11-23T10:27:49.885Z,19.80
2023-11-23T10:30:17.891Z,18.90
2023-11-23T10:32:44.922Z,20.80
2023-11-23T10:35:14.032Z,18.90
2023-11-23T10:37:43.719Z,20.70
2023-11-23T10:40:14.605Z,18.60
2023-11-23T10:42:42.946Z,18.40
2023-11-23T10:45:13.839Z,18.00
2023-11-23T10:47:42.266Z,19.50
2023-11-23T10:50:12.174Z,21.30
2023-11-23T10:52:40.775Z,19.50
2023-11-23T10:55:09.012Z,19.80
2023-11-23T10:57:36.890Z,19.40
2023-11-23T11:00:08.600Z,20.60
2023-11-23T11:02:35.819Z,19.20
2023-11-23T11:05:04.710Z,19.20
2023-11-23T11:07:31.789Z,19.00
2023-11-23T11:10:06.636Z,18.70
2023-11-23T11:12:40.518Z,18.30
2023-11-23T11:15:09.062Z,21.30
2023-11-23T11:17:40.164Z,16.70
2023-11-23T11:20:11.229Z,15.60
2023-11-23T11:22:38.270Z,17.10
2023-11-23T11:25:05.570Z,15.70
2023-11-23T11:27:36.650Z,16.20
2023-11-23T11:30:03.945Z,15.10
2023-11-23T11:32:36.783Z,18.40
2023-11-23T11:35:09.953Z,17.20
2023-11-23T11:37:37.725Z,15.50
2023-11-23T11:40:06.877Z,14.80
2023-11-23T11:42:36.339Z,15.50
2023-11-23T11:45:07.392Z,15.10
2023-11-23T11:47:35.328Z,15.00
2023-11-23T11:50:02.186Z,15.60
2023-11-23T11:52:29.060Z,14.70
2023-11-23T11:54:56.020Z,14.60
2023-11-23T11:57:23.422Z,16.50
2023-11-23T11:59:50.429Z,14.50
2023-11-23T12:02:17.434Z,16.30
2023-11-23T12:04:45.421Z,14.30
2023-11-23T12:07:17.139Z,14.70
2023-11-23T12:09:46.981Z,16.80
2023-11-23T12:12:14.486Z,14.30
2023-11-23T12:14:41.754Z,14.20
2023-11-23T12:17:12.869Z,12.80
2023-11-23T12:19:50.787Z,13.50
2023-11-23T12:22:21.535Z,13.50
2023-11-23T12:24:48.454Z,11.70
2023-11-23T12:27:17.007Z,14.10
2023-11-23T12:29:45.034Z,12.80
2023-11-23T12:32:11.719Z,14.10
2023-11-23T12:34:38.446Z,13.30
2023-11-23T12:37:05.996Z,12.60
2023-11-23T12:39:32.855Z,15.20
2023-11-23T12:41:59.831Z,15.40
2023-11-23T12:44:26.883Z,13.50
2023-11-23T12:46:53.926Z,14.90
2023-11-23T12:49:21.477Z,12.90
2023-11-23T12:51:48.823Z,14.50
2023-11-23T12:54:16.265Z,13.30
2023-11-23T12:56:43.281Z,13.10
2023-11-23T12:59:10.160Z,12.50
2023-11-23T13:01:40.330Z,15.00
2023-11-23T13:04:09.928Z,14.10
2023-11-23T13:06:37.727Z,16.30
2023-11-23T13:09:05.388Z,12.60
2023-11-23T13:11:32.940Z,11.10
2023-11-23T13:13:59.693Z,13.20
2023-11-23T13:16:26.792Z,11.60
2023-11-23T13:19:10.377Z,12.10
2023-11-23T13:21:42.496Z,12.00
2023-11-23T13:24:13.179Z,12.30
2023-11-23T13:26:40.159Z,12.30
2023-11-23T13:29:07.460Z,11.80
2023-11-23T13:31:34.853Z,12.40
2023-11-23T13:34:01.988Z,12.20
2023-11-23T13:36:29.471Z,10.40
2023-11-23T13:38:57.681Z,10.80
2023-11-23T13:41:24.405Z,10.10
2023-11-23T13:43:51.149Z,10.90
2023-11-23T13:46:18.461Z,9.40
2023-11-23T13:48:47.463Z,11.10
2023-11-23T13:51:18.616Z,10.90
2023-11-23T13:53:45.423Z,11.80
2023-11-23T13:56:12.909Z,12.60
2023-11-23T13:58:39.929Z,9.50
2023-11-23T14:01:06.915Z,9.40
2023-11-23T14:03:36.266Z,12.00
2023-11-23T14:06:04.267Z,9.40
2023-11-23T14:08:31.021Z,9.20
2023-11-23T14:10:57.976Z,12.20
2023-11-23T14:13:26.640Z,11.70
2023-11-23T14:15:54.971Z,8.00
2023-11-23T14:18:23.032Z,7.50
2023-11-23T14:20:51.017Z,8.50
2023-11-23T14:23:18.598Z,8.20
2023-11-23T14:25:45.518Z,9.00
2023-11-23T14:28:16.154Z,7.60
2023-11-23T14:30:43.946Z,10.20
2023-11-23T14:33:12.635Z,6.90
2023-11-23T14:35:39.508Z,6.70
2023-11-23T14:38:06.707Z,8.00
2023-11-23T14:40:33.515Z,9.10
2023-11-23T14:43:00.343Z,10.50
2023-11-23T14:45:31.307Z,7.70
2023-11-23T14:48:00.029Z,7.90
2023-11-23T14:50:30.056Z,7.90
2023-11-23T14:52:57.400Z,8.00
2023-11-23T14:55:24.498Z,9.20
2023-11-23T14:57:51.493Z,9.30
2023-11-23T15:00:19.869Z,6.40
2023-11-23T15:02:47.066Z,6.10
2023-11-23T15:05:16.513Z,9.80
2023-11-23T15:07:43.768Z,6.80
2023-11-23T15:10:13.997Z,6.40
2023-11-23T15:12:41.275Z,9.40
2023-11-23T15:15:09.593Z,8.00
2023-11-23T15:17:37.620Z,8.20
2023-11-23T15:20:07.365Z,9.00
2023-11-23T15:22:34.402Z,9.10
2023-11-23T15:25:08.306Z,7.10
2023-11-23T15:27:37.317Z,6.30
2023-11-23T15:30:06.200Z,6.80
2023-11-23T15:32:38.760Z,8.20
2023-11-23T15:35:06.457Z,7.10
2023-11-23T15:37:33.204Z,10.20
2023-11-23T15:39:59.985Z,9.30
2023-11-23T15:42:27.669Z,6.40
2023-11-23T15:44:54.475Z,7.20
2023-11-23T15:47:21.282Z,10.40
2023-11-23T15:49:48.929Z,7.80
2023-11-23T15:52:16.211Z,6.60
2023-11-23T15:54:43.158Z,5.60
2023-11-23T15:57:11.302Z,7.00
2023-11-23T15:59:38.449Z,6.00
2023-11-23T16:02:05.945Z,6.40
2023-11-23T16:04:33.256Z,7.20
2023-11-23T16:07:01.896Z,7.00
2023-11-23T16:09:28.844Z,7.90
2023-11-23T16:11:56.198Z,6.70
2023-11-23T16:14:25.202Z,7.20
2023-11-23T16:16:52.049Z,8.20
2023-11-23T16:19:18.844Z,7.70
2023-11-23T16:21:45.718Z,7.30
2023-11-23T16:24:14.009Z,5.80
2023-11-23T16:26:41.016Z,6.50
2023-11-23T16:29:11.728Z,5.80
2023-11-23T16:31:43.301Z,7.00
2023-11-23T16:34:11.224Z,6.50
2023-11-23T16:36:40.496Z,5.90
2023-11-23T16:39:14.535Z,6.70
2023-11-23T16:41:41.375Z,5.20
2023-11-23T16:44:08.605Z,6.00
2023-11-23T16:46:35.361Z,9.40
2023-11-23T16:49:02.423Z,6.30
2023-11-23T16:51:30.326Z,6.40
2023-11-23T16:53:57.561Z,5.80
2023-11-23T16:56:24.556Z,6.50
2023-11-23T16:58:51.779Z,5.50
2023-11-23T17:01:19.045Z,4.90
2023-11-23T17:03:46.092Z,5.20
2023-11-23T17:06:13.594Z,5.80
2023-11-23T17:08:40.935Z,4.10
2023-11-23T17:11:10.223Z,4.60
2023-11-23T17:13:37.792Z,5.60
2023-11-23T17:16:04.836Z,4.40
2023-11-23T17:18:31.844Z,4.70
2023-11-23T17:20:58.880Z,4.90
2023-11-23T17:23:26.139Z,4.60
2023-11-23T17:25:53.214Z,4.10
2023-11-23T17:28:21.931Z,4.40
2023-11-23T17:30:49.885Z,4.30
2023-11-23T17:33:20.348Z,6.30
2023-11-23T17:35:47.324Z,4.80
2023-11-23T17:38:14.950Z,4.50
2023-11-23T17:40:42.912Z,7.00
2023-11-23T17:43:09.816Z,4.70
2023-11-23T17:45:37.036Z,4.80
2023-11-23T17:48:05.465Z,4.70
2023-11-23T17:50:32.290Z,4.80
2023-11-23T17:52:59.896Z,6.20
2023-11-23T17:55:28.471Z,4.10
2023-11-23T17:57:56.028Z,4.80
2023-11-23T18:00:25.779Z,6.30
2023-11-23T18:02:52.714Z,4.10
2023-11-23T18:05:19.905Z,4.90
2023-11-23T18:07:47.425Z,5.10
2023-11-23T18:10:16.291Z,5.50
2023-11-23T18:12:43.336Z,6.90
2023-11-23T18:15:12.968Z,5.10
2023-11-23T18:17:40.866Z,4.90
2023-11-23T18:20:12.625Z,5.50
2023-11-23T18:22:39.878Z,7.90
2023-11-23T18:25:08.880Z,7.20
2023-11-23T18:27:36.017Z,6.30
2023-11-23T18:30:02.996Z,7.80
2023-11-23T18:32:30.856Z,6.00
2023-11-23T18:34:57.648Z,8.30
2023-11-23T18:37:24.808Z,5.00
2023-11-23T18:39:51.668Z,5.80
2023-11-23T18:42:18.543Z,5.10
2023-11-23T18:44:45.500Z,6.10
2023-11-23T18:47:12.719Z,5.70
2023-11-23T18:49:39.556Z,6.20
2023-11-23T18:52:07.079Z,5.40
2023-11-23T18:54:33.928Z,6.40
2023-11-23T18:57:01.009Z,6.40
2023-11-23T18:59:27.738Z,5.70
2023-11-23T19:01:55.597Z,7.40
2023-11-23T19:04:23.475Z,7.40
2023-11-23T19:06:54.318Z,7.70
2023-11-23T19:09:23.809Z,6.50
2023-11-23T19:11:51.117Z,6.20
2023-11-23T19:14:18.022Z,7.20
2023-11-23T19:16:44.988Z,7.40
2023-11-23T19:19:14.012Z,6.40
2023-11-23T19:21:41.998Z,6.20
2023-11-23T19:24:11.168Z,7.90
2023-11-23T19:26:39.626Z,8.20
2023-11-23T19:29:09.242Z,8.80
2023-11-23T19:31:37.163Z,8.00
2023-11-23T19:34:05.497Z,7.30
2023-11-23T19:36:35.320Z,7.20
2023-11-23T19:39:03.893Z,6.50
2023-11-23T19:41:32.211Z,7.00
2023-11-23T19:43:59.733Z,6.70
2023-11-23T19:46:29.262Z,9.00
2023-11-23T19:48:57.864Z,8.40
2023-11-23T19:51:30.352Z,7.30
2023-11-23T19:54:00.989Z,7.10
2023-11-23T19:56:28.483Z,5.90
2023-11-23T19:58:55.350Z,7.50
2023-11-23T20:01:22.474Z,7.10
2023-11-23T20:03:49.427Z,7.70
2023-11-23T20:06:16.356Z,7.40
2023-11-23T20:08:44.472Z,6.10
2023-11-23T20:11:13.242Z,6.20
2023-11-23T20:13:40.790Z,7.60
2023-11-23T20:16:18.399Z,8.30
2023-11-23T20:18:51.308Z,7.20
2023-11-23T20:21:18.279Z,8.00
2023-11-23T20:23:44.978Z,8.00
2023-11-23T20:26:11.821Z,7.20
2023-11-23T20:28:38.845Z,6.80
2023-11-23T20:31:06.420Z,5.10
2023-11-23T20:33:33.420Z,2.30
2023-11-23T20:36:00.264Z,3.60
2023-11-23T20:38:27.065Z,5.30
2023-11-23T20:40:53.846Z,2.50
2023-11-23T20:43:22.506Z,3.70
2023-11-23T20:45:51.984Z,1.80
2023-11-23T20:48:18.829Z,1.60
2023-11-23T20:50:46.121Z,2.30
2023-11-23T20:53:12.884Z,1.30
2023-11-23T20:55:40.813Z,1.80
2023-11-23T20:58:09.008Z,1.50
2023-11-23T21:00:36.768Z,2.40
2023-11-23T21:03:05.075Z,2.70
2023-11-23T21:05:33.290Z,2.10
2023-11-23T21:08:01.599Z,1.70
2023-11-23T21:10:30.113Z,2.20
2023-11-23T21:12:57.215Z,2.20
2023-11-23T21:15:24.003Z,3.10
2023-11-23T21:17:51.002Z,2.20
2023-11-23T21:20:18.037Z,1.90
2023-11-23T21:22:45.041Z,1.40
2023-11-23T21:25:12.065Z,1.90
2023-11-23T21:27:43.504Z,1.30
2023-11-23T21:30:12.860Z,1.80
2023-11-23T21:32:40.522Z,1.40
2023-11-23T21:35:09.213Z,1.30
2023-11-23T21:37:36.717Z,2.50
2023-11-23T21:40:03.618Z,2.60
2023-11-23T21:42:30.977Z,2.10
2023-11-23T21:44:57.816Z,2.00
2023-11-23T21:47:24.619Z,1.80
2023-11-23T21:49:51.439Z,2.70
2023-11-23T21:52:18.309Z,1.70
2023-11-23T21:54:50.809Z,3.10
2023-11-23T21:57:25.064Z,2.40
2023-11-23T21:59:51.931Z,2.10
2023-11-23T22:02:18.817Z,2.00
2023-11-23T22:04:47.399Z,2.30
2023-11-23T22:07:14.295Z,2.60
2023-11-23T22:09:41.216Z,2.00
2023-11-23T22:12:09.562Z,1.40
2023-11-23T22:14:38.363Z,2.20
2023-11-23T22:17:05.755Z,2.00
2023-11-23T22:19:33.270Z,3.40
2023-11-23T22:22:00.665Z,2.80
2023-11-23T22:24:29.178Z,2.50
2023-11-23T22:26:59.544Z,2.90
2023-11-23T22:29:26.270Z,2.10
2023-11-23T22:31:56.559Z,1.60
2023-11-23T22:34:25.585Z,3.00
2023-11-23T22:36:55.848Z,2.70
2023-11-23T22:39:24.283Z,2.00
2023-11-23T22:41:52.543Z,1.90
2023-11-23T22:44:20.388Z,3.30
2023-11-23T22:46:49.915Z,2.40
2023-11-23T22:49:16.761Z,2.40
2023-11-23T22:51:44.230Z,5.10
2023-11-23T22:54:11.542Z,2.60
2023-11-23T22:56:38.882Z,3.10
2023-11-23T22:59:05.741Z,2.60
2023-11-23T23:01:32.616Z,2.40
2023-11-23T23:03:59.662Z,2.80
2023-11-23T23:06:26.600Z,2.40
2023-11-23T23:08:53.781Z,2.40
2023-11-23T23:11:20.517Z,5.30
2023-11-23T23:13:47.359Z,4.30
2023-11-23T23:16:15.418Z,1.90
2023-11-23T23:18:42.468Z,3.00
2023-11-23T23:21:09.804Z,2.20
2023-11-23T23:23:36.790Z,2.20
2023-11-23T23:26:03.941Z,3.10
2023-11-23T23:28:32.669Z,2.90
2023-11-23T23:31:00.140Z,3.30
2023-11-23T23:33:27.090Z,4.40
2023-11-23T23:35:54.349Z,4.20
2023-11-23T23:38:21.133Z,2.80
2023-11-23T23:40:51.393Z,4.00
2023-11-23T23:43:18.768Z,2.00
2023-11-23T23:45:45.786Z,3.00
2023-11-23T23:48:12.700Z,3.20
2023-11-23T23:50:41.788Z,5.90
2023-11-23T23:53:08.840Z,4.00
2023-11-23T23:55:35.663Z,4.90
2023-11-23T23:58:04.967Z,2.70
